createdAt,value
2018-05-10T00:00:14.889Z,60.2
2018-05-10T00:01:05.809Z,60.2
2018-05-10T00:01:55.865Z,60.2
2018-05-10T00:02:45.659Z,60.2
2018-05-10T00:03:35.984Z,60.2
2018-05-10T00:04:25.868Z,60.2
2018-05-10T00:05:16.120Z,60.1
2018-05-10T00:06:05.907Z,60.2
2018-05-10T00:06:56.264Z,60.1
2018-05-10T00:07:46.476Z,60.1
2018-05-10T00:08:35.808Z,60.1
2018-05-10T00:09:41.063Z,60.1
2018-05-10T00:10:16.620Z,60.1
2018-05-10T00:11:06.290Z,60.1
2018-05-10T00:11:56.631Z,60.1
2018-05-10T00:12:46.152Z,60.1
2018-05-10T00:13:36.213Z,60.1
2018-05-10T00:14:26.023Z,60.1
2018-05-10T00:15:16.896Z,60.1
2018-05-10T00:16:06.131Z,60.1
2018-05-10T00:16:57.029Z,60.1
2018-05-10T00:17:46.806Z,60.1
2018-05-10T00:18:36.890Z,60.1
2018-05-10T00:19:26.662Z,60.1
2018-05-10T00:20:17.010Z,60
2018-05-10T00:21:07.344Z,60
2018-05-10T00:21:57.414Z,60
2018-05-10T00:22:47.200Z,60
2018-05-10T00:23:37.522Z,60
2018-05-10T00:24:28.363Z,60
2018-05-10T00:25:17.663Z,60
2018-05-10T00:26:07.469Z,60
2018-05-10T00:26:57.786Z,60
2018-05-10T00:27:47.575Z,59.9
2018-05-10T00:28:37.624Z,60
2018-05-10T00:29:27.735Z,59.9
2018-05-10T00:30:17.674Z,59.9
2018-05-10T00:31:08.020Z,59.9
2018-05-10T00:31:58.157Z,59.9
2018-05-10T00:32:47.944Z,59.9
2018-05-10T00:33:37.717Z,59.9
2018-05-10T00:34:28.343Z,59.9
2018-05-10T00:35:18.154Z,59.9
2018-05-10T00:36:08.899Z,59.9
2018-05-10T00:36:58.288Z,59.9
2018-05-10T00:37:48.324Z,59.9
2018-05-10T00:38:38.430Z,59.9
2018-05-10T00:39:28.504Z,59.9
2018-05-10T00:40:18.781Z,59.9
2018-05-10T00:41:08.628Z,59.9
2018-05-10T00:41:58.675Z,59.9
2018-05-10T00:43:52.472Z,59.9
2018-05-10T00:44:02.217Z,59.8
2018-05-10T00:44:53.335Z,59.8
2018-05-10T00:45:43.470Z,59.8
2018-05-10T00:46:33.673Z,59.8
2018-05-10T00:47:23.044Z,59.8
2018-05-10T00:48:13.685Z,59.8
2018-05-10T00:49:03.748Z,59.8
2018-05-10T00:49:53.205Z,59.8
2018-05-10T00:50:43.573Z,59.8
2018-05-10T00:51:33.638Z,59.8
2018-05-10T00:53:13.695Z,59.8
2018-05-10T00:54:03.844Z,59.8
2018-05-10T00:54:53.884Z,59.8
2018-05-10T00:55:44.245Z,59.7
2018-05-10T00:56:34.316Z,59.8
2018-05-10T00:57:23.516Z,59.7
2018-05-10T00:58:14.157Z,59.8
2018-05-10T00:59:04.561Z,59.7
2018-05-10T00:59:54.315Z,59.7
2018-05-10T01:00:44.088Z,59.7
2018-05-10T01:01:34.944Z,59.7
2018-05-10T01:02:24.182Z,59.7
2018-05-10T01:03:14.087Z,59.7
2018-05-10T01:04:04.524Z,59.6
2018-05-10T01:04:54.561Z,59.6
2018-05-10T01:05:44.184Z,59.7
2018-05-10T01:06:34.234Z,59.7
2018-05-10T01:07:24.607Z,59.6
2018-05-10T01:08:14.926Z,59.6
2018-05-10T01:09:04.690Z,59.6
2018-05-10T01:09:55.327Z,59.6
2018-05-10T01:10:44.556Z,59.6
2018-05-10T01:11:34.397Z,59.6
2018-05-10T01:12:24.419Z,59.6
2018-05-10T01:13:15.419Z,59.6
2018-05-10T01:14:04.821Z,59.6
2018-05-10T01:14:55.507Z,59.6
2018-05-10T01:15:44.622Z,59.6
2018-05-10T01:16:35.344Z,59.6
2018-05-10T01:17:25.644Z,59.6
2018-05-10T01:18:15.125Z,59.6
2018-05-10T01:19:05.463Z,59.6
2018-05-10T01:19:55.425Z,59.6
2018-05-10T01:20:45.866Z,59.6
2018-05-10T01:21:36.009Z,59.5
2018-05-10T01:22:25.994Z,59.5
2018-05-10T01:23:15.230Z,59.5
2018-05-10T01:24:05.832Z,59.5
2018-05-10T01:24:56.211Z,59.5
2018-05-10T01:25:46.527Z,59.5
2018-05-10T01:26:36.052Z,59.5
2018-05-10T01:27:26.412Z,59.5
2018-05-10T01:28:16.441Z,59.5
2018-05-10T01:29:06.796Z,59.4
2018-05-10T01:29:56.280Z,59.4
2018-05-10T01:30:46.943Z,59.4
2018-05-10T01:31:36.675Z,59.4
2018-05-10T20:10:30.588Z,48.4
2018-05-10T20:11:21.512Z,48.4
2018-05-10T20:12:11.570Z,48.4
2018-05-10T20:13:01.348Z,48.4
2018-05-10T20:13:52.616Z,48.4
2018-05-10T20:14:41.462Z,48.4
2018-05-10T20:15:31.809Z,48.3
2018-05-10T20:16:21.872Z,48.3
2018-05-10T20:17:11.681Z,48.3
2018-05-10T20:18:02.037Z,48.3
2018-05-10T20:18:50.930Z,48.3
2018-05-10T20:19:41.279Z,48.3
2018-05-10T20:20:30.864Z,48.3
2018-05-10T20:21:22.281Z,48.3
2018-05-10T20:22:12.037Z,48.3
2018-05-10T20:23:01.851Z,48.3
2018-05-10T20:23:52.469Z,48.3
2018-05-10T20:24:41.528Z,48.2
2018-05-10T20:25:32.040Z,48.3
2018-05-10T20:26:21.786Z,48.2
2018-05-10T20:27:11.663Z,48.2
2018-05-10T20:28:02.018Z,48.2
2018-05-10T20:28:51.716Z,48.2
2018-05-10T20:29:42.172Z,48.2
2018-05-10T20:30:32.194Z,48.2
2018-05-10T20:31:22.073Z,48.2
2018-05-10T20:32:13.123Z,48.1
2018-05-10T20:33:02.580Z,48.1
2018-05-10T20:33:52.693Z,48.1
2018-05-10T20:34:42.525Z,48.1
2018-05-10T20:35:32.762Z,48.1
2018-05-10T20:36:23.403Z,48.1
2018-05-10T20:37:13.274Z,48.1
2018-05-10T20:38:02.098Z,48.1
2018-05-10T20:38:53.038Z,48.1
2018-05-10T20:39:43.712Z,48.1
2018-05-10T20:40:32.597Z,48.1
2018-05-10T20:41:23.247Z,48.1
2018-05-10T20:42:13.477Z,48.1
2018-05-10T20:43:04.003Z,48.1
2018-05-10T20:43:53.430Z,48
2018-05-10T20:44:43.919Z,48
2018-05-10T20:45:33.826Z,48
2018-05-10T20:46:23.577Z,48
2018-05-10T20:47:13.947Z,48
2018-05-10T20:48:04.024Z,48
2018-05-10T20:48:54.384Z,47.9
2018-05-10T20:49:43.869Z,47.9
2018-05-10T20:50:34.565Z,47.9
2018-05-10T20:51:23.698Z,47.9
2018-05-10T20:52:14.325Z,47.9
2018-05-10T20:53:04.373Z,47.9
2018-05-10T20:53:54.036Z,47.9
2018-05-10T20:54:44.810Z,47.9
2018-05-10T20:55:34.619Z,47.9
2018-05-10T20:56:24.631Z,47.9
2018-05-10T20:57:14.138Z,47.9
2018-05-10T20:58:04.470Z,47.9
2018-05-10T20:58:54.435Z,47.8
2018-05-10T20:59:44.645Z,47.9
2018-05-10T21:00:34.450Z,47.8
2018-05-10T21:01:24.740Z,47.8
2018-05-10T21:02:14.578Z,47.8
2018-05-10T21:03:05.147Z,47.8
2018-05-10T21:03:54.535Z,47.8
2018-05-10T21:04:44.777Z,47.8
2018-05-10T21:05:35.410Z,47.8
2018-05-10T21:06:25.124Z,47.8
2018-05-10T21:07:14.774Z,47.8
2018-05-10T21:08:05.258Z,47.8
2018-05-10T21:08:55.591Z,47.8
2018-05-10T21:09:45.627Z,47.8
2018-05-10T21:10:35.744Z,47.8
2018-05-10T21:11:25.214Z,47.7
2018-05-10T21:12:15.839Z,47.7
2018-05-10T21:13:05.624Z,47.7
2018-05-10T21:13:55.955Z,47.7
2018-05-10T21:14:45.834Z,47.7
2018-05-10T21:15:35.817Z,47.7
2018-05-10T21:16:26.683Z,47.7
2018-05-10T21:17:16.513Z,47.6
2018-05-10T21:18:06.285Z,47.6
2018-05-10T21:18:56.658Z,47.6
2018-05-10T21:19:46.405Z,47.6
2018-05-10T21:20:36.480Z,47.6
2018-05-10T21:21:26.669Z,47.6
2018-05-10T21:22:16.584Z,47.6
2018-05-10T21:23:07.393Z,47.6
2018-05-10T21:23:56.441Z,47.6
2018-05-10T21:24:47.064Z,47.6
2018-05-10T21:25:36.580Z,47.6
2018-05-10T21:26:26.923Z,47.6
2018-05-10T21:27:16.986Z,47.5
2018-05-10T21:28:07.012Z,47.5
2018-05-10T21:28:57.093Z,47.5
2018-05-10T21:29:47.472Z,47.5
2018-05-10T21:30:36.940Z,47.5
2018-05-10T21:31:27.297Z,47.5
2018-05-10T21:32:17.616Z,47.4
2018-05-10T21:33:07.701Z,47.4
2018-05-10T21:33:58.134Z,47.4
2018-05-10T21:34:47.826Z,47.4
2018-05-10T21:35:37.586Z,47.4
2018-05-10T21:36:28.042Z,47.4
2018-05-10T21:37:18.023Z,47.4
2018-05-10T21:38:08.061Z,47.4
2018-05-10T21:38:58.161Z,47.4
2018-05-10T21:39:47.901Z,47.4
2018-05-10T21:40:37.988Z,47.4
2018-05-10T21:41:27.829Z,47.4
2018-05-10T21:42:18.396Z,47.3
2018-05-10T21:43:08.208Z,47.4
2018-05-10T21:43:58.215Z,47.3
2018-05-10T21:44:49.130Z,47.3
2018-05-10T21:45:38.638Z,47.3
2018-05-10T21:46:28.417Z,47.3
2018-05-10T21:47:18.788Z,47.3
2018-05-10T21:48:08.553Z,47.3
2018-05-10T21:48:58.329Z,47.3
2018-05-10T21:49:48.718Z,47.3
2018-05-10T21:50:38.171Z,47.3
2018-05-10T21:51:28.807Z,47.3
2018-05-10T21:52:19.160Z,47.3
2018-05-10T21:53:09.223Z,47.3
2018-05-10T21:53:58.455Z,47.3
2018-05-10T21:54:49.382Z,47.2
2018-05-10T21:55:39.109Z,47.2
2018-05-10T21:56:29.475Z,47.2
2018-05-10T21:57:18.997Z,47.2
2018-05-10T21:58:09.599Z,47.2
2018-05-10T21:58:59.411Z,47.1
2018-05-10T21:59:49.717Z,47.2
2018-05-10T22:00:39.782Z,47.1
2018-05-10T22:01:29.941Z,47.1
2018-05-10T22:02:19.880Z,47.1
2018-05-10T22:03:09.953Z,47.1
2018-05-10T22:04:00.061Z,47.1
2018-05-10T22:04:49.548Z,47.1
2018-05-10T22:05:39.901Z,47.1
2018-05-10T22:06:29.927Z,47.1
2018-05-10T22:07:20.029Z,47.1
2018-05-10T22:08:10.048Z,47.1
2018-05-10T22:09:00.747Z,47.1
2018-05-10T22:09:50.543Z,47
2018-05-10T22:10:40.252Z,47
2018-05-10T22:11:30.038Z,47
2018-05-10T22:12:20.192Z,47
2018-05-10T22:13:10.752Z,47
2018-05-10T22:14:00.516Z,47
2018-05-10T22:14:50.683Z,47
2018-05-10T22:15:40.964Z,47
2018-05-10T22:16:30.749Z,47
2018-05-10T22:17:21.067Z,46.9
2018-05-10T22:18:10.850Z,46.9
2018-05-10T22:19:01.268Z,46.9
2018-05-10T22:19:50.390Z,46.9
2018-05-10T22:20:41.133Z,46.9
2018-05-10T22:21:31.362Z,46.9
2018-05-10T22:22:21.430Z,46.9
2018-05-10T22:23:11.231Z,46.9
2018-05-10T22:24:01.553Z,46.9
2018-05-10T22:24:51.608Z,46.9
2018-05-10T22:25:41.672Z,46.8
2018-05-10T22:26:31.746Z,46.9
2018-05-10T22:27:21.237Z,46.8
2018-05-10T22:28:11.564Z,46.8
2018-05-10T22:29:01.372Z,46.8
2018-05-10T22:29:51.987Z,46.8
2018-05-10T22:30:42.058Z,46.8
2018-05-10T22:31:32.128Z,46.8
2018-05-10T22:32:22.207Z,46.8
2018-05-10T22:33:12.261Z,46.8
2018-05-10T22:34:01.747Z,46.8
2018-05-10T22:34:52.104Z,46.8
2018-05-10T22:35:42.447Z,46.8
2018-05-10T22:36:31.922Z,46.8
2018-05-10T22:37:22.289Z,46.7
2018-05-10T22:38:12.645Z,46.7
2018-05-10T22:39:02.422Z,46.7
2018-05-10T22:39:52.785Z,46.7
2018-05-10T22:40:42.266Z,46.7
2018-05-10T22:41:32.879Z,46.7
2018-05-10T22:42:22.669Z,46.7
2018-05-10T22:43:12.755Z,46.7
2018-05-10T22:44:02.795Z,46.6
2018-05-10T22:44:53.138Z,46.6
2018-05-10T22:45:43.212Z,46.6
2018-05-10T22:46:33.267Z,46.6
2018-05-10T22:47:22.482Z,46.6
2018-05-10T22:48:13.407Z,46.6
2018-05-10T22:49:03.498Z,46.6
2018-05-10T22:49:53.522Z,46.6
2018-05-10T22:50:43.605Z,46.6
2018-05-10T22:51:33.637Z,46.6
2018-05-10T22:52:23.451Z,46.6
2018-05-10T22:53:13.784Z,46.6
2018-05-10T22:54:03.557Z,46.5
2018-05-10T22:54:53.889Z,46.6
2018-05-10T22:55:44.015Z,46.5
2018-05-10T22:56:33.750Z,46.5
2018-05-10T22:57:24.109Z,46.5
2018-05-10T22:58:14.175Z,46.5
2018-05-10T22:59:03.939Z,46.4
2018-05-10T22:59:54.860Z,46.5
2018-05-10T23:00:44.347Z,46.4
2018-05-10T23:01:33.976Z,46.4
2018-05-10T23:02:24.476Z,46.4
2018-05-10T23:03:14.249Z,46.4
2018-05-10T23:04:04.613Z,46.4
2018-05-10T23:04:54.689Z,46.4
2018-05-10T23:05:44.713Z,46.4
2018-05-10T23:06:34.790Z,46.4
2018-05-10T23:07:24.570Z,46.4
2018-05-10T23:08:14.923Z,46.4
2018-05-10T23:09:04.685Z,46.4
2018-05-10T23:09:55.048Z,46.4
2018-05-10T23:10:44.538Z,46.3
2018-05-10T23:11:34.898Z,46.3
2018-05-10T23:12:24.938Z,46.3
2018-05-10T23:13:15.034Z,46.3
2018-05-10T23:14:05.363Z,46.3
2018-05-10T23:14:54.860Z,46.3
2018-05-10T23:15:45.203Z,46.3
2018-05-10T23:16:35.525Z,46.3
2018-05-10T23:17:25.324Z,46.3
2018-05-10T23:18:15.657Z,46.3
2018-05-10T23:19:05.489Z,46.3
2018-05-10T23:19:55.788Z,46.3
2018-05-10T23:20:45.579Z,46.3
2018-05-10T23:21:35.643Z,46.3
2018-05-10T23:22:25.709Z,46.3
2018-05-10T23:23:15.762Z,46.2
2018-05-10T23:24:05.862Z,46.2
2018-05-10T23:24:55.332Z,46.2
2018-05-10T23:25:46.348Z,46.2
2018-05-10T23:26:36.307Z,46.2
2018-05-10T23:27:26.361Z,46.2
2018-05-10T23:28:16.471Z,46.2
2018-05-10T23:29:05.949Z,46.1
2018-05-10T23:29:55.992Z,46.1
2018-05-10T23:30:46.334Z,46.1
2018-05-10T23:31:36.442Z,46.1
2018-05-10T23:32:26.457Z,46.1
2018-05-10T23:33:16.819Z,46.1
2018-05-10T23:34:06.855Z,46.1
2018-05-10T23:34:56.353Z,46.1
2018-05-10T23:35:46.728Z,46.1
2018-05-10T23:36:36.778Z,46.1
2018-05-10T23:37:26.584Z,46.1
2018-05-10T23:38:16.623Z,46.1
2018-05-10T23:39:07.239Z,46.1
2018-05-10T23:39:57.318Z,46.1
2018-05-10T23:40:47.354Z,46
2018-05-10T23:41:37.487Z,46
2018-05-10T23:42:27.526Z,46
2018-05-10T23:43:17.309Z,46
2018-05-10T23:44:07.656Z,46
2018-05-10T23:44:57.689Z,46
2018-05-10T23:45:47.756Z,46
2018-05-10T23:46:37.543Z,46
2018-05-10T23:47:27.313Z,45.9
2018-05-10T23:48:17.972Z,45.9
2018-05-10T23:49:07.749Z,45.9
2018-05-10T23:49:58.055Z,45.9
2018-05-10T23:50:47.859Z,45.9
2018-05-10T23:51:38.187Z,45.9
2018-05-10T23:52:27.692Z,45.9
2018-05-10T23:53:18.308Z,45.9
2018-05-10T23:54:08.134Z,45.9
2018-05-10T23:54:58.467Z,45.9
2018-05-10T23:55:48.522Z,45.9
2018-05-10T23:56:38.574Z,45.9
2018-05-10T23:57:28.627Z,45.9
2018-05-10T23:58:18.154Z,45.8
2018-05-10T23:59:08.476Z,45.8
2018-05-10T23:59:58.535Z,45.8
